Time,TemperatureF,DewpointF,PressureIn,WindDirection,WindDirectionDegrees,WindSpeedMPH,WindSpeedGustMPH,Humidity,HourlyPrecipIn,Conditions,Clouds,dailyrainin,SolarRadiationWatts/m^2,SoftwareType,DateUTC
2013-05-01 00:01:00,62.1,51.0,30.11,SE,146,3.8,5.1,67,0.00,BKN,,0.00,0.0,WeatherDisplay:10.37,2013-05-01 04:01:00,
2013-05-01 00:06:00,62.1,51.0,30.11,SSE,167,3.6,6.9,67,0.00,BKN,,0.00,0.0,WeatherDisplay:10.37,2013-05-01 04:06:00,
2013-05-01 00:11:00,61.9,50.8,30.11,SE,141,3.1,4.6,67,0.00,BKN,,0.00,0.0,WeatherDisplay:10.37,2013-05-01 04:11:00,
2013-05-01 00:16:00,61.9,50.8,30.11,SE,142,3.4,5.8,67,0.00,BKN,,0.00,0.0,WeatherDisplay:10.37,2013-05-01 04:16:00,
2013-05-01 00:21:00,61.9,51.2,30.11,South,182,2.9,8.1,68,0.00,BKN,,0.00,0.0,WeatherDisplay:10.37,2013-05-01 04:21:00,
2013-05-01 00:26:00,61.7,51.0,30.11,SSE,150,2.7,4.4,68,0.00,BKN,,0.00,0.0,WeatherDisplay:10.37,2013-05-01 04:26:00,
2013-05-01 00:31:00,61.7,51.0,30.11,South,177,2.0,3.5,68,0.00,BKN,,0.00,0.0,WeatherDisplay:10.37,2013-05-01 04:31:00,
2013-05-01 00:36:00,61.5,50.9,30.11,South,183,3.2,5.8,68,0.00,BKN,,0.00,0.0,WeatherDisplay:10.37,2013-05-01 04:36:00,
2013-05-01 00:41:00,61.5,51.3,30.11,SSE,163,3.3,5.8,69,0.00,BKN,,0.00,0.0,WeatherDisplay:10.37,2013-05-01 04:41:00,
2013-05-01 00:46:00,61.7,51.0,30.11,SE,141,2.2,6.8,68,0.00,BKN,,0.00,0.0,WeatherDisplay:10.37,2013-05-01 04:46:00,
2013-05-01 00:51:00,61.7,51.0,30.11,SE,135,2.1,3.5,68,0.00,BKN,,0.00,0.0,WeatherDisplay:10.37,2013-05-01 04:51:00,
2013-05-01 00:56:00,61.5,51.3,30.11,SSE,160,2.0,4.6,69,0.00,BKN,,0.00,0.0,WeatherDisplay:10.37,2013-05-01 04:56:00,
2013-05-01 01:01:00,61.5,51.3,30.11,South,172,4.1,5.8,69,0.00,BKN,,0.00,0.0,WeatherDisplay:10.37,2013-05-01 05:01:00,
2013-05-01 01:06:00,61.5,51.3,30.11,SSE,158,3.5,6.9,69,0.00,BKN,,0.00,0.0,WeatherDisplay:10.37,2013-05-01 05:06:00,
2013-05-01 01:11:00,61.5,50.9,30.12,South,178,3.0,4.6,68,0.00,BKN,,0.00,0.0,WeatherDisplay:10.37,2013-05-01 05:11:00,
2013-05-01 01:16:00,61.5,51.3,30.13,South,171,3.8,5.8,69,0.00,BKN,,0.00,0.0,WeatherDisplay:10.37,2013-05-01 05:16:00,
2013-05-01 01:21:00,61.5,50.9,30.13,SSE,158,2.5,6.9,68,0.00,BKN,,0.00,0.0,WeatherDisplay:10.37,2013-05-01 05:21:00,
2013-05-01 01:26:00,61.5,51.3,30.13,South,175,1.2,2.3,69,0.00,BKN,,0.00,0.0,WeatherDisplay:10.37,2013-05-01 05:26:00,
2013-05-01 01:31:00,61.5,51.3,30.12,South,172,1.3,2.3,69,0.00,BKN,,0.00,0.0,WeatherDisplay:10.37,2013-05-01 05:31:00,
2013-05-01 01:36:00,61.5,50.9,30.13,South,188,1.8,3.5,68,0.00,BKN,,0.00,0.0,WeatherDisplay:10.37,2013-05-01 05:36:00,
2013-05-01 01:41:00,61.5,50.9,30.13,South,175,0.4,2.1,68,0.00,BKN,,0.00,0.0,WeatherDisplay:10.37,2013-05-01 05:41:00,
2013-05-01 01:46:00,61.5,50.9,30.13,South,169,1.0,2.4,68,0.00,BKN,,0.00,0.0,WeatherDisplay:10.37,2013-05-01 05:46:00,
2013-05-01 01:51:00,61.5,51.3,30.13,SSE,151,0.9,2.3,69,0.00,BKN,,0.00,0.0,WeatherDisplay:10.37,2013-05-01 05:51:00,
2013-05-01 01:56:00,61.5,51.3,30.13,SSE,148,1.2,3.5,69,0.00,BKN,,0.00,0.0,WeatherDisplay:10.37,2013-05-01 05:56:00,
2013-05-01 02:01:00,61.5,50.9,30.13,SE,145,1.2,2.3,68,0.00,BKN,,0.00,0.0,WeatherDisplay:10.37,2013-05-01 06:01:00,
2013-05-01 02:06:00,61.3,51.1,30.13,SSE,149,1.9,3.5,69,0.00,BKN,,0.00,0.0,WeatherDisplay:10.37,2013-05-01 06:06:00,
2013-05-01 02:11:00,61.5,51.3,30.13,SE,143,2.9,3.7,69,0.00,BKN,,0.00,0.0,WeatherDisplay:10.37,2013-05-01 06:11:00,
2013-05-01 02:16:00,61.3,51.1,30.13,SE,141,2.8,3.5,69,0.00,BKN,,0.00,0.0,WeatherDisplay:10.37,2013-05-01 06:16:00,
2013-05-01 02:21:00,61.3,51.1,30.13,SE,146,2.2,3.9,69,0.00,BKN,,0.00,0.0,WeatherDisplay:10.37,2013-05-01 06:21:00,
2013-05-01 02:26:00,61.3,51.1,30.13,SE,126,3.4,4.6,69,0.00,BKN,,0.00,0.0,WeatherDisplay:10.37,2013-05-01 06:26:00,
2013-05-01 02:31:00,61.5,51.3,30.13,East,100,2.2,3.5,69,0.00,BKN,,0.00,0.0,WeatherDisplay:10.37,2013-05-01 06:31:00,
2013-05-01 02:36:00,61.5,50.9,30.13,ESE,120,1.8,3.5,68,0.00,BKN,,0.00,0.0,WeatherDisplay:10.37,2013-05-01 06:36:00,
2013-05-01 02:41:00,61.5,50.9,30.13,East,94,0.3,1.1,68,0.00,BKN,,0.00,0.0,WeatherDisplay:10.37,2013-05-01 06:41:00,
2013-05-01 02:46:00,61.3,51.1,30.13,SSE,153,2.8,4.6,69,0.00,BKN,,0.00,0.0,WeatherDisplay:10.37,2013-05-01 06:46:00,
2013-05-01 02:51:00,61.3,51.1,30.13,SSE,152,4.1,5.8,69,0.00,BKN,,0.00,0.0,WeatherDisplay:10.37,2013-05-01 06:51:00,
2013-05-01 02:56:00,61.3,51.1,30.13,SE,126,3.8,6.9,69,0.00,BKN,,0.00,0.0,WeatherDisplay:10.37,2013-05-01 06:56:00,
2013-05-01 03:01:00,61.2,50.9,30.13,SSE,150,4.5,6.3,69,0.00,BKN,,0.00,0.0,WeatherDisplay:10.37,2013-05-01 07:01:00,
2013-05-01 03:06:00,61.0,50.7,30.13,SE,140,4.8,6.9,69,0.00,BKN,,0.00,0.0,WeatherDisplay:10.37,2013-05-01 07:06:00,
2013-05-01 03:11:00,61.0,50.7,30.13,SE,124,4.9,9.2,69,0.00,BKN,,0.00,0.0,WeatherDisplay:10.37,2013-05-01 07:11:00,
2013-05-01 03:16:00,61.0,51.1,30.13,SE,132,4.3,5.8,70,0.00,BKN,,0.00,0.0,WeatherDisplay:10.37,2013-05-01 07:16:00,
2013-05-01 03:21:00,61.0,51.1,30.13,SE,144,3.8,5.8,70,0.00,BKN,,0.00,0.0,WeatherDisplay:10.37,2013-05-01 07:21:00,
2013-05-01 03:26:00,61.0,51.1,30.13,SE,135,4.6,6.9,70,0.00,BKN,,0.00,0.0,WeatherDisplay:10.37,2013-05-01 07:26:00,
2013-05-01 03:31:00,61.0,51.1,30.13,SE,135,3.1,5.8,70,0.00,BKN,,0.00,0.0,WeatherDisplay:10.37,2013-05-01 07:31:00,
2013-05-01 03:36:00,61.0,51.1,30.13,ESE,113,3.3,5.8,70,0.00,BKN,,0.00,0.0,WeatherDisplay:10.37,2013-05-01 07:36:00,
2013-05-01 03:41:00,60.8,51.0,30.13,SSE,156,4.1,6.9,70,0.00,BKN,,0.00,0.0,WeatherDisplay:10.37,2013-05-01 07:41:00,
2013-05-01 03:46:00,60.6,50.8,30.13,SE,146,3.1,4.7,70,0.00,BKN,,0.00,0.0,WeatherDisplay:10.37,2013-05-01 07:46:00,
2013-05-01 03:51:00,60.4,50.6,30.13,SSE,157,1.9,3.5,70,0.00,BKN,,0.00,0.0,WeatherDisplay:10.37,2013-05-01 07:51:00,
2013-05-01 03:56:00,60.4,51.0,30.13,SE,137,4.1,6.9,71,0.00,BKN,,0.00,0.0,WeatherDisplay:10.37,2013-05-01 07:56:00,
2013-05-01 04:01:00,60.4,51.0,30.13,SE,128,4.0,5.8,71,0.00,BKN,,0.00,0.0,WeatherDisplay:10.37,2013-05-01 08:01:00,
2013-05-01 04:06:00,60.4,51.0,30.13,SE,140,3.0,4.6,71,0.00,BKN,,0.00,0.0,WeatherDisplay:10.37,2013-05-01 08:06:00,
2013-05-01 04:11:00,60.4,51.0,30.13,SSE,154,2.1,3.9,71,0.00,BKN,,0.00,0.0,WeatherDisplay:10.37,2013-05-01 08:11:00,
2013-05-01 04:16:00,60.4,51.0,30.13,SSE,156,3.0,5.8,71,0.00,BKN,,0.00,0.0,WeatherDisplay:10.37,2013-05-01 08:16:00,
2013-05-01 04:21:00,60.4,51.0,30.13,SE,127,2.1,3.5,71,0.00,BKN,,0.00,0.0,WeatherDisplay:10.37,2013-05-01 08:21:00,
2013-05-01 04:26:00,60.4,51.0,30.13,SE,126,2.4,3.5,71,0.00,BKN,,0.00,0.0,WeatherDisplay:10.37,2013-05-01 08:26:00,
2013-05-01 04:31:00,60.4,51.0,30.14,SSE,163,1.4,3.5,71,0.00,BKN,,0.00,0.0,WeatherDisplay:10.37,2013-05-01 08:31:00,
2013-05-01 04:36:00,60.3,50.8,30.14,SE,132,1.2,3.5,71,0.00,BKN,,0.00,0.0,WeatherDisplay:10.37,2013-05-01 08:36:00,
2013-05-01 04:41:00,60.3,50.8,30.14,SE,137,3.0,5.3,71,0.00,BKN,,0.00,0.0,WeatherDisplay:10.37,2013-05-01 08:41:00,
2013-05-01 04:46:00,60.1,50.6,30.14,SE,137,2.8,4.6,71,0.00,BKN,,0.00,0.0,WeatherDisplay:10.37,2013-05-01 08:46:00,
2013-05-01 04:51:00,60.1,50.6,30.14,SSE,159,2.4,3.5,71,0.00,BKN,,0.00,0.0,WeatherDisplay:10.37,2013-05-01 08:51:00,
2013-05-01 04:56:00,60.1,50.6,30.14,SSE,154,1.7,2.4,71,0.00,BKN,,0.00,0.0,WeatherDisplay:10.37,2013-05-01 08:56:00,
2013-05-01 05:01:00,60.1,51.0,30.14,South,190,2.0,4.6,72,0.00,BKN,,0.00,0.0,WeatherDisplay:10.37,2013-05-01 09:01:00,
2013-05-01 05:06:00,60.1,51.0,30.14,SSE,148,4.5,5.8,72,0.00,BKN,,0.00,0.0,WeatherDisplay:10.37,2013-05-01 09:06:00,
2013-05-01 05:11:00,60.1,50.6,30.14,ESE,122,4.5,5.8,71,0.00,BKN,,0.00,0.0,WeatherDisplay:10.37,2013-05-01 09:11:00,
2013-05-01 05:16:00,60.1,51.0,30.15,SE,142,4.0,6.9,72,0.00,BKN,,0.00,0.0,WeatherDisplay:10.37,2013-05-01 09:16:00,
2013-05-01 05:21:00,60.1,51.0,30.15,SE,141,3.7,6.9,72,0.00,BKN,,0.00,0.0,WeatherDisplay:10.37,2013-05-01 09:21:00,
2013-05-01 05:26:00,59.9,50.8,30.15,SE,136,4.0,6.0,72,0.00,BKN,,0.00,0.0,WeatherDisplay:10.37,2013-05-01 09:26:00,
2013-05-01 05:31:00,59.7,50.7,30.15,SSE,162,3.7,5.8,72,0.00,BKN,,0.00,0.0,WeatherDisplay:10.37,2013-05-01 09:31:00,
2013-05-01 05:36:00,59.7,50.7,30.15,South,176,1.8,4.6,72,0.00,BKN,,0.00,0.0,WeatherDisplay:10.37,2013-05-01 09:36:00,
2013-05-01 05:41:00,59.7,50.7,30.16,South,172,1.1,2.4,72,0.00,BKN,,0.00,0.0,WeatherDisplay:10.37,2013-05-01 09:41:00,
2013-05-01 05:46:00,59.5,50.5,30.17,SE,135,1.4,2.3,72,0.00,BKN,,0.00,0.0,WeatherDisplay:10.37,2013-05-01 09:46:00,
2013-05-01 05:51:00,59.4,50.7,30.17,SSE,158,2.6,5.8,73,0.00,BKN,,0.00,0.0,WeatherDisplay:10.37,2013-05-01 09:51:00,
2013-05-01 05:56:00,59.4,50.7,30.17,SSE,163,4.4,6.9,73,0.00,BKN,,0.00,0.0,WeatherDisplay:10.37,2013-05-01 09:56:00,
2013-05-01 06:01:00,59.4,50.7,30.17,SSE,156,2.7,4.6,73,0.00,BKN,,0.00,0.0,WeatherDisplay:10.37,2013-05-01 10:01:00,
2013-05-01 06:06:00,59.4,50.7,30.17,SSE,158,2.4,3.9,73,0.00,BKN,,0.00,0.0,WeatherDisplay:10.37,2013-05-01 10:06:00,
2013-05-01 06:11:00,59.4,50.7,30.18,SSE,158,0.8,2.3,73,0.00,BKN,,0.00,0.0,WeatherDisplay:10.37,2013-05-01 10:11:00,
2013-05-01 06:16:00,59.2,50.5,30.18,SSE,159,2.3,4.6,73,0.00,BKN,,0.00,0.0,WeatherDisplay:10.37,2013-05-01 10:16:00,
2013-05-01 06:21:00,59.2,50.9,30.18,SSE,150,2.4,5.9,74,0.00,BKN,,0.00,0.0,WeatherDisplay:10.37,2013-05-01 10:21:00,
2013-05-01 06:26:00,59.0,50.7,30.19,SE,135,2.8,4.6,74,0.00,BKN,,0.00,0.0,WeatherDisplay:10.37,2013-05-01 10:26:00,
2013-05-01 06:31:00,59.2,50.9,30.19,South,172,3.8,6.9,74,0.00,BKN,,0.00,0.0,WeatherDisplay:10.37,2013-05-01 10:31:00,
2013-05-01 06:36:00,59.2,50.9,30.19,SSE,154,3.6,5.8,74,0.00,BKN,,0.00,0.0,WeatherDisplay:10.37,2013-05-01 10:36:00,
2013-05-01 06:41:00,59.5,51.2,30.19,SSE,158,3.6,5.8,74,0.00,BKN,,0.00,0.0,WeatherDisplay:10.37,2013-05-01 10:41:00,
2013-05-01 06:46:00,59.5,51.2,30.19,East,91,4.3,5.9,74,0.00,BKN,,0.00,0.0,WeatherDisplay:10.37,2013-05-01 10:46:00,
2013-05-01 06:51:00,59.5,51.2,30.19,SSE,147,6.0,8.1,74,0.00,BKN,,0.00,0.0,WeatherDisplay:10.37,2013-05-01 10:51:00,
2013-05-01 06:56:00,59.5,51.2,30.19,SSE,156,6.4,10.4,74,0.00,BKN,,0.00,0.0,WeatherDisplay:10.37,2013-05-01 10:56:00,
2013-05-01 07:01:00,59.5,51.2,30.19,SSE,149,6.4,10.4,74,0.00,BKN,,0.00,0.0,WeatherDisplay:10.37,2013-05-01 11:01:00,
2013-05-01 07:06:00,59.7,51.4,30.19,SSE,153,5.2,10.4,74,0.00,BKN,,0.00,0.0,WeatherDisplay:10.37,2013-05-01 11:06:00,
2013-05-01 07:11:00,59.7,51.4,30.20,SSE,156,4.5,8.1,74,0.00,BKN,,0.00,0.0,WeatherDisplay:10.37,2013-05-01 11:11:00,
2013-05-01 07:16:00,59.7,51.4,30.19,SSE,148,5.9,9.2,74,0.00,BKN,,0.00,0.2,WeatherDisplay:10.37,2013-05-01 11:16:00,
2013-05-01 07:21:00,59.9,51.2,30.20,SE,139,5.0,8.5,73,0.00,BKN,,0.00,0.6,WeatherDisplay:10.37,2013-05-01 11:21:00,
2013-05-01 07:26:00,59.9,51.2,30.21,ESE,117,6.9,11.5,73,0.00,BKN,,0.00,1.1,WeatherDisplay:10.37,2013-05-01 11:26:00,
2013-05-01 07:31:00,60.1,51.4,30.21,SSE,156,5.2,6.9,73,0.00,BKN,,0.00,2.9,WeatherDisplay:10.37,2013-05-01 11:31:00,
2013-05-01 07:36:00,60.1,51.4,30.21,SSE,155,3.4,5.8,73,0.00,BKN,,0.00,2.6,WeatherDisplay:10.37,2013-05-01 11:36:00,
2013-05-01 07:41:00,60.1,51.4,30.21,SE,135,5.6,9.2,73,0.00,BKN,,0.00,3.7,WeatherDisplay:10.37,2013-05-01 11:41:00,
2013-05-01 07:46:00,60.1,51.8,30.21,ESE,120,5.6,9.2,74,0.00,BKN,,0.00,4.5,WeatherDisplay:10.37,2013-05-01 11:46:00,
2013-05-01 07:51:00,60.1,51.4,30.21,South,171,5.6,9.2,73,0.00,BKN,,0.00,5.4,WeatherDisplay:10.37,2013-05-01 11:51:00,
2013-05-01 07:56:00,60.1,51.4,30.21,ESE,115,3.2,5.8,73,0.00,BKN,,0.00,7.2,WeatherDisplay:10.37,2013-05-01 11:56:00,
2013-05-01 08:01:00,60.1,51.4,30.21,SE,133,3.5,8.5,73,0.00,BKN,,0.00,9.6,WeatherDisplay:10.37,2013-05-01 12:01:00,
2013-05-01 08:06:00,60.3,51.6,30.21,SSE,160,4.5,8.1,73,0.00,BKN,,0.00,30.7,WeatherDisplay:10.37,2013-05-01 12:06:00,
2013-05-01 08:11:00,60.4,51.7,30.21,SSE,158,5.9,8.1,73,0.00,BKN,,0.00,16.2,WeatherDisplay:10.37,2013-05-01 12:11:00,
2013-05-01 08:16:00,60.6,51.9,30.21,SE,127,4.8,7.2,73,0.00,BKN,,0.00,24.1,WeatherDisplay:10.37,2013-05-01 12:16:00,
2013-05-01 08:21:00,60.8,51.7,30.22,SSE,151,5.8,9.2,72,0.00,BKN,,0.00,31.5,WeatherDisplay:10.37,2013-05-01 12:21:00,
2013-05-01 08:26:00,61.0,51.9,30.21,SE,127,7.7,11.5,72,0.00,BKN,,0.00,33.1,WeatherDisplay:10.37,2013-05-01 12:26:00,
2013-05-01 08:31:00,61.0,51.9,30.22,SE,129,6.2,9.2,72,0.00,BKN,,0.00,84.7,WeatherDisplay:10.37,2013-05-01 12:31:00,
2013-05-01 08:36:00,61.5,52.0,30.21,SSE,167,6.5,10.4,71,0.00,BKN,,0.00,92.4,WeatherDisplay:10.37,2013-05-01 12:36:00,
2013-05-01 08:41:00,61.9,52.0,30.22,South,173,4.3,8.1,70,0.00,BKN,,0.00,111.8,WeatherDisplay:10.37,2013-05-01 12:41:00,
2013-05-01 08:46:00,62.4,52.5,30.21,SSE,161,6.4,10.9,70,0.00,BKN,,0.00,185.4,WeatherDisplay:10.37,2013-05-01 12:46:00,
2013-05-01 08:51:00,62.8,52.1,30.21,SSW,213,4.3,9.2,68,0.00,BKN,,0.00,216.8,WeatherDisplay:10.37,2013-05-01 12:51:00,
2013-05-01 08:56:00,63.3,52.2,30.22,South,180,4.5,6.9,67,0.00,BKN,,0.00,181.9,WeatherDisplay:10.37,2013-05-01 12:56:00,
2013-05-01 09:01:00,63.5,51.9,30.22,SE,133,6.2,9.2,66,0.00,BKN,,0.00,121.6,WeatherDisplay:10.37,2013-05-01 13:01:00,
2013-05-01 09:06:00,63.3,52.2,30.22,SSE,156,4.3,6.9,67,0.00,BKN,,0.00,143.7,WeatherDisplay:10.37,2013-05-01 13:06:00,
2013-05-01 09:11:00,63.9,52.3,30.22,SE,141,5.2,8.1,66,0.00,BKN,,0.00,335.9,WeatherDisplay:10.37,2013-05-01 13:11:00,
2013-05-01 09:16:00,64.6,52.1,30.22,SSE,151,6.2,9.2,64,0.00,BKN,,0.00,358.3,WeatherDisplay:10.37,2013-05-01 13:16:00,
2013-05-01 09:21:00,65.1,52.6,30.22,NE,38,3.3,8.1,64,0.00,BKN,,0.00,385.6,WeatherDisplay:10.37,2013-05-01 13:21:00,
2013-05-01 09:26:00,65.8,52.0,30.22,ESE,106,5.7,9.2,61,0.00,BKN,,0.00,135.6,WeatherDisplay:10.37,2013-05-01 13:26:00,
2013-05-01 09:31:00,64.9,52.0,30.22,SE,128,5.0,10.4,63,0.00,BKN,,0.00,441.8,WeatherDisplay:10.37,2013-05-01 13:31:00,
2013-05-01 09:36:00,65.1,51.8,30.22,SSE,150,6.9,10.4,62,0.00,BKN,,0.00,470.6,WeatherDisplay:10.37,2013-05-01 13:36:00,
2013-05-01 09:41:00,65.1,51.8,30.22,SE,124,7.1,11.5,62,0.00,BKN,,0.00,500.3,WeatherDisplay:10.37,2013-05-01 13:41:00,
2013-05-01 09:46:00,65.7,52.3,30.22,SE,145,6.1,9.2,62,0.00,BKN,,0.00,547.7,WeatherDisplay:10.37,2013-05-01 13:46:00,
2013-05-01 09:51:00,66.0,52.2,30.22,SE,146,4.2,6.9,61,0.00,BKN,,0.00,589.0,WeatherDisplay:10.37,2013-05-01 13:51:00,
2013-05-01 09:56:00,66.9,52.6,30.22,SSE,163,3.4,6.9,60,0.00,BKN,,0.00,618.3,WeatherDisplay:10.37,2013-05-01 13:56:00,
2013-05-01 10:01:00,67.3,52.5,30.22,ESE,111,4.6,8.1,59,0.00,SCT,BKN,0.00,651.0,WeatherDisplay:10.37,2013-05-01 14:01:00,
2013-05-01 10:06:00,67.6,52.3,30.22,ESE,117,5.7,9.2,58,0.00,SCT,BKN,0.00,692.0,WeatherDisplay:10.37,2013-05-01 14:06:00,
2013-05-01 10:11:00,68.5,52.7,30.22,SE,133,6.2,9.2,57,0.00,SCT,BKN,0.00,729.0,WeatherDisplay:10.37,2013-05-01 14:11:00,
2013-05-01 10:16:00,68.4,51.6,30.22,SE,124,7.3,10.4,55,0.00,SCT,BKN,0.00,766.2,WeatherDisplay:10.37,2013-05-01 14:16:00,
2013-05-01 10:21:00,68.7,52.4,30.22,South,174,4.5,6.9,56,0.00,SCT,BKN,0.00,815.0,WeatherDisplay:10.37,2013-05-01 14:21:00,
2013-05-01 10:26:00,69.4,53.1,30.22,South,191,2.3,6.9,56,0.00,SCT,BKN,0.00,853.5,WeatherDisplay:10.37,2013-05-01 14:26:00,
2013-05-01 10:31:00,69.6,51.7,30.22,South,179,3.3,6.9,53,0.00,SCT,BKN,0.00,903.5,WeatherDisplay:10.37,2013-05-01 14:31:00,
2013-05-01 10:36:00,70.2,51.7,30.22,SE,138,4.6,8.1,52,0.00,SCT,BKN,0.00,946.4,WeatherDisplay:10.37,2013-05-01 14:36:00,
2013-05-01 10:41:00,69.8,51.4,30.22,South,184,3.4,6.9,52,0.00,SCT,BKN,0.00,983.3,WeatherDisplay:10.37,2013-05-01 14:41:00,
2013-05-01 10:46:00,70.0,51.0,30.22,SE,138,4.1,8.1,51,0.00,SCT,BKN,0.00,1023.9,WeatherDisplay:10.37,2013-05-01 14:46:00,
2013-05-01 10:51:00,70.0,50.5,30.22,SE,145,5.8,9.2,50,0.00,SCT,BKN,0.00,1073.1,WeatherDisplay:10.37,2013-05-01 14:51:00,
2013-05-01 10:56:00,70.5,51.5,30.22,SE,140,4.4,6.7,51,0.00,SCT,BKN,0.00,1120.6,WeatherDisplay:10.37,2013-05-01 14:56:00,
2013-05-01 11:01:00,70.3,50.8,30.22,SE,142,7.5,10.4,50,0.00,CLR,BKN,0.00,1171.7,WeatherDisplay:10.37,2013-05-01 15:01:00,
2013-05-01 11:06:00,71.2,51.1,30.22,SSE,153,5.5,9.2,49,0.00,CLR,BKN,0.00,1214.2,WeatherDisplay:10.37,2013-05-01 15:06:00,
2013-05-01 11:11:00,71.8,51.6,30.22,SSE,158,0.6,2.3,49,0.00,CLR,BKN,0.00,1256.6,WeatherDisplay:10.37,2013-05-01 15:11:00,
2013-05-01 11:16:00,71.8,51.0,30.22,SSE,151,3.6,6.9,48,0.00,CLR,BKN,0.00,1301.7,WeatherDisplay:10.37,2013-05-01 15:16:00,
2013-05-01 11:21:00,72.0,51.8,30.22,SE,145,2.8,4.6,49,0.00,CLR,BKN,0.00,1345.9,WeatherDisplay:10.37,2013-05-01 15:21:00,
2013-05-01 11:26:00,72.1,52.5,30.22,SE,127,1.7,4.6,50,0.00,CLR,BKN,0.00,1394.8,WeatherDisplay:10.37,2013-05-01 15:26:00,
2013-05-01 11:31:00,72.3,51.0,30.22,SSW,205,2.6,4.6,47,0.00,CLR,BKN,0.00,1436.1,WeatherDisplay:10.37,2013-05-01 15:31:00,
2013-05-01 11:36:00,72.5,51.7,30.22,South,182,4.9,8.1,48,0.00,CLR,BKN,0.00,1480.0,WeatherDisplay:10.37,2013-05-01 15:36:00,
2013-05-01 11:41:00,73.0,51.0,30.21,SSW,192,2.1,5.8,46,0.00,CLR,BKN,0.00,1519.7,WeatherDisplay:10.37,2013-05-01 15:41:00,
2013-05-01 11:46:00,73.2,51.2,30.22,South,170,3.4,6.9,46,0.00,CLR,BKN,0.00,1562.2,WeatherDisplay:10.37,2013-05-01 15:46:00,
2013-05-01 11:51:00,74.1,52.0,30.21,SSE,166,2.3,5.8,46,0.00,CLR,BKN,0.00,1607.5,WeatherDisplay:10.37,2013-05-01 15:51:00,
2013-05-01 11:56:00,74.8,50.8,30.21,SSE,148,4.5,8.1,43,0.00,CLR,BKN,0.00,1641.7,WeatherDisplay:10.37,2013-05-01 15:56:00,
2013-05-01 12:01:00,75.2,52.4,30.21,ESE,121,3.4,5.8,45,0.00,CLR,BKN,0.00,1701.9,WeatherDisplay:10.37,2013-05-01 16:01:00,
2013-05-01 12:06:00,74.8,49.6,30.21,SE,132,5.0,9.2,41,0.00,CLR,BKN,0.00,1722.6,WeatherDisplay:10.37,2013-05-01 16:06:00,
2013-05-01 12:11:00,75.9,53.0,30.21,ESE,109,1.9,5.4,45,0.00,CLR,BKN,0.00,1766.6,WeatherDisplay:10.37,2013-05-01 16:11:00,
2013-05-01 12:16:00,77.0,52.1,30.20,NE,35,2.9,6.9,42,0.00,SCT,BKN,0.00,1799.4,WeatherDisplay:10.37,2013-05-01 16:16:00,
2013-05-01 12:21:00,76.8,50.7,30.21,East,95,3.8,9.2,40,0.00,SCT,BKN,0.00,1844.5,WeatherDisplay:10.37,2013-05-01 16:21:00,
2013-05-01 12:26:00,78.4,52.8,30.20,North,11,2.6,5.8,41,0.00,SCT,BKN,0.00,1879.7,WeatherDisplay:10.37,2013-05-01 16:26:00,
2013-05-01 12:31:00,78.6,52.9,30.20,NNE,25,1.3,4.6,41,0.00,SCT,BKN,0.00,1901.9,WeatherDisplay:10.37,2013-05-01 16:31:00,
2013-05-01 12:36:00,78.8,51.0,30.20,SE,142,2.9,6.9,38,0.00,SCT,BKN,0.00,1950.3,WeatherDisplay:10.37,2013-05-01 16:36:00,
2013-05-01 12:41:00,77.2,48.9,30.21,SE,141,5.8,9.2,37,0.00,SCT,BKN,0.00,1982.3,WeatherDisplay:10.37,2013-05-01 16:41:00,
2013-05-01 12:46:00,78.3,51.3,30.19,ENE,59,3.1,6.9,39,0.00,SCT,BKN,0.00,2023.3,WeatherDisplay:10.37,2013-05-01 16:46:00,
2013-05-01 12:51:00,77.4,48.3,30.20,SE,139,6.6,10.4,36,0.00,SCT,BKN,0.00,2048.2,WeatherDisplay:10.37,2013-05-01 16:51:00,
2013-05-01 12:56:00,77.0,49.4,30.19,SE,124,2.5,6.9,38,0.00,SCT,BKN,0.00,2069.6,WeatherDisplay:10.37,2013-05-01 16:56:00,
2013-05-01 13:01:00,77.5,48.5,30.19,SSE,150,5.5,9.2,36,0.00,SCT,BKN,0.00,2100.1,WeatherDisplay:10.37,2013-05-01 17:01:00,
2013-05-01 13:06:00,76.8,48.6,30.19,SE,139,3.9,9.2,37,0.00,SCT,BKN,0.00,2104.6,WeatherDisplay:10.37,2013-05-01 17:06:00,
2013-05-01 13:11:00,76.6,49.1,30.19,SW,215,3.8,6.9,38,0.00,SCT,BKN,0.00,2126.3,WeatherDisplay:10.37,2013-05-01 17:11:00,
2013-05-01 13:16:00,77.7,48.6,30.19,NNE,17,1.6,4.6,36,0.00,SCT,BKN,0.00,2158.3,WeatherDisplay:10.37,2013-05-01 17:16:00,
2013-05-01 13:21:00,77.9,49.5,30.19,SE,125,1.9,5.8,37,0.00,SCT,BKN,0.00,2173.0,WeatherDisplay:10.37,2013-05-01 17:21:00,
2013-05-01 13:26:00,79.3,50.8,30.19,NNE,29,2.8,6.9,37,0.00,SCT,BKN,0.00,2182.1,WeatherDisplay:10.37,2013-05-01 17:26:00,
2013-05-01 13:31:00,80.8,51.3,30.19,South,184,2.0,4.6,36,0.00,SCT,BKN,0.00,2193.1,WeatherDisplay:10.37,2013-05-01 17:31:00,
2013-05-01 13:36:00,81.3,51.0,30.19,NE,50,2.4,4.6,35,0.00,SCT,BKN,0.00,2145.5,WeatherDisplay:10.37,2013-05-01 17:36:00,
2013-05-01 13:41:00,80.8,49.8,30.19,NE,37,2.8,6.9,34,0.00,SCT,BKN,0.00,2221.0,WeatherDisplay:10.37,2013-05-01 17:41:00,
2013-05-01 13:46:00,79.5,47.9,30.19,SSE,160,2.4,6.9,33,0.00,SCT,BKN,0.00,2226.4,WeatherDisplay:10.37,2013-05-01 17:46:00,
2013-05-01 13:51:00,78.4,47.7,30.19,South,178,2.7,6.9,34,0.00,SCT,BKN,0.00,2221.6,WeatherDisplay:10.37,2013-05-01 17:51:00,
2013-05-01 13:56:00,78.4,47.7,30.19,South,173,3.8,9.2,34,0.00,SCT,BKN,0.00,2223.2,WeatherDisplay:10.37,2013-05-01 17:56:00,
2013-05-01 14:01:00,79.9,49.0,30.19,East,92,4.7,11.5,34,0.00,SCT,BKN,0.00,2241.3,WeatherDisplay:10.37,2013-05-01 18:01:00,
2013-05-01 14:06:00,81.1,49.3,30.19,NNE,30,3.1,6.7,33,0.00,SCT,BKN,0.00,2232.7,WeatherDisplay:10.37,2013-05-01 18:06:00,
2013-05-01 14:11:00,81.1,49.3,30.19,SE,134,3.8,8.3,33,0.00,SCT,BKN,0.00,2226.9,WeatherDisplay:10.37,2013-05-01 18:11:00,
2013-05-01 14:16:00,80.2,49.3,30.19,ESE,103,2.3,5.8,34,0.00,SCT,BKN,0.00,2218.3,WeatherDisplay:10.37,2013-05-01 18:16:00,
2013-05-01 14:21:00,81.1,47.6,30.19,ENE,62,4.7,9.3,31,0.00,SCT,BKN,0.00,2214.6,WeatherDisplay:10.37,2013-05-01 18:21:00,
2013-05-01 14:26:00,80.4,47.9,30.19,SE,143,3.4,8.1,32,0.00,SCT,BKN,0.00,2196.6,WeatherDisplay:10.37,2013-05-01 18:26:00,
2013-05-01 14:31:00,80.6,47.2,30.19,NE,47,3.8,8.1,31,0.00,SCT,BKN,0.00,2189.3,WeatherDisplay:10.37,2013-05-01 18:31:00,
2013-05-01 14:36:00,80.4,46.1,30.19,ESE,116,4.2,8.1,30,0.00,SCT,BKN,0.00,2176.3,WeatherDisplay:10.37,2013-05-01 18:36:00,
2013-05-01 14:41:00,80.1,47.5,30.19,ESE,104,3.9,9.2,32,0.00,SCT,BKN,0.00,2165.4,WeatherDisplay:10.37,2013-05-01 18:41:00,
2013-05-01 14:46:00,80.4,47.9,30.19,SSE,163,2.9,5.8,32,0.00,SCT,BKN,0.00,2140.4,WeatherDisplay:10.37,2013-05-01 18:46:00,
2013-05-01 14:51:00,81.1,46.8,30.19,East,99,3.2,6.9,30,0.00,SCT,BKN,0.00,2115.6,WeatherDisplay:10.37,2013-05-01 18:51:00,
2013-05-01 14:56:00,80.8,45.6,30.19,SE,127,5.0,9.2,29,0.00,SCT,BKN,0.00,2101.4,WeatherDisplay:10.37,2013-05-01 18:56:00,
2013-05-01 15:01:00,81.1,49.3,30.19,NNE,18,0.8,3.5,33,0.00,SCT,BKN,0.00,2081.7,WeatherDisplay:10.37,2013-05-01 19:01:00,
2013-05-01 15:06:00,81.7,46.3,30.19,SE,145,1.5,5.8,29,0.00,SCT,BKN,0.00,2055.8,WeatherDisplay:10.37,2013-05-01 19:06:00,
2013-05-01 15:11:00,81.3,46.0,30.18,NE,49,3.0,5.8,29,0.00,SCT,BKN,0.00,2032.9,WeatherDisplay:10.37,2013-05-01 19:11:00,
2013-05-01 15:16:00,82.0,45.7,30.18,South,170,3.6,5.8,28,0.00,FEW,BKN,0.00,2006.8,WeatherDisplay:10.37,2013-05-01 19:16:00,
2013-05-01 15:21:00,81.3,44.1,30.18,East,95,4.8,9.2,27,0.00,FEW,BKN,0.00,1978.1,WeatherDisplay:10.37,2013-05-01 19:21:00,
2013-05-01 15:26:00,80.6,44.5,30.18,SE,127,5.8,8.1,28,0.00,FEW,BKN,0.00,1939.2,WeatherDisplay:10.37,2013-05-01 19:26:00,
2013-05-01 15:31:00,80.2,44.2,30.18,ENE,63,2.1,4.6,28,0.00,FEW,BKN,0.00,1907.9,WeatherDisplay:10.37,2013-05-01 19:31:00,
2013-05-01 15:36:00,81.9,47.4,30.18,NE,46,1.8,3.5,30,0.00,FEW,BKN,0.00,1868.5,WeatherDisplay:10.37,2013-05-01 19:36:00,
2013-05-01 15:41:00,80.8,42.7,30.17,ESE,121,6.5,9.2,26,0.00,FEW,BKN,0.00,1840.5,WeatherDisplay:10.37,2013-05-01 19:41:00,
2013-05-01 15:46:00,81.3,46.0,30.18,NE,39,1.6,4.6,29,0.00,FEW,BKN,0.00,1797.0,WeatherDisplay:10.37,2013-05-01 19:46:00,
2013-05-01 15:51:00,81.7,47.2,30.17,NE,45,1.4,3.5,30,0.00,FEW,BKN,0.00,1760.9,WeatherDisplay:10.37,2013-05-01 19:51:00,
2013-05-01 15:56:00,82.8,47.3,30.18,NE,51,0.7,2.2,29,0.00,FEW,BKN,0.00,1715.6,WeatherDisplay:10.37,2013-05-01 19:56:00,
2013-05-01 16:01:00,82.2,43.9,30.18,ENE,75,3.2,5.8,26,0.00,FEW,BKN,0.00,1671.0,WeatherDisplay:10.37,2013-05-01 20:01:00,
2013-05-01 16:06:00,82.6,46.2,30.18,SE,130,2.9,5.8,28,0.00,FEW,BKN,0.00,1628.9,WeatherDisplay:10.37,2013-05-01 20:06:00,
2013-05-01 16:11:00,82.6,47.1,30.18,ENE,62,3.2,6.9,29,0.00,FEW,BKN,0.00,1580.7,WeatherDisplay:10.37,2013-05-01 20:11:00,
2013-05-01 16:16:00,81.9,44.6,30.18,NE,39,3.7,8.1,27,0.00,FEW,BKN,0.00,1528.2,WeatherDisplay:10.37,2013-05-01 20:16:00,
2013-05-01 16:21:00,81.7,46.3,30.18,NNE,17,2.2,4.6,29,0.00,FEW,BKN,0.00,1485.8,WeatherDisplay:10.37,2013-05-01 20:21:00,
2013-05-01 16:26:00,82.0,45.7,30.17,East,98,0.6,4.6,28,0.00,FEW,BKN,0.00,1444.1,WeatherDisplay:10.37,2013-05-01 20:26:00,
2013-05-01 16:31:00,82.0,42.7,30.17,SE,143,3.3,6.9,25,0.00,FEW,BKN,0.00,1403.2,WeatherDisplay:10.37,2013-05-01 20:31:00,
2013-05-01 16:36:00,81.1,42.0,30.18,SSE,166,5.3,8.1,25,0.00,FEW,BKN,0.00,1350.1,WeatherDisplay:10.37,2013-05-01 20:36:00,
2013-05-01 16:41:00,81.7,45.4,30.18,ESE,118,2.4,6.0,28,0.00,FEW,BKN,0.00,1301.8,WeatherDisplay:10.37,2013-05-01 20:41:00,
2013-05-01 16:46:00,81.5,43.3,30.18,SSE,149,2.7,4.6,26,0.00,FEW,BKN,0.00,1248.7,WeatherDisplay:10.37,2013-05-01 20:46:00,
2013-05-01 16:51:00,81.3,42.1,30.18,ENE,69,2.4,4.6,25,0.00,FEW,BKN,0.00,1197.2,WeatherDisplay:10.37,2013-05-01 20:51:00,
2013-05-01 16:56:00,81.1,44.0,30.17,NW,325,2.1,4.6,27,0.00,FEW,BKN,0.00,1152.6,WeatherDisplay:10.37,2013-05-01 20:56:00,
2013-05-01 17:01:00,80.8,43.7,30.17,ESE,105,1.5,5.8,27,0.00,FEW,BKN,0.00,1101.4,WeatherDisplay:10.37,2013-05-01 21:01:00,
2013-05-01 17:06:00,81.1,43.0,30.17,East,83,3.8,6.9,26,0.00,FEW,BKN,0.00,997.4,WeatherDisplay:10.37,2013-05-01 21:06:00,
2013-05-01 17:11:00,80.6,41.5,30.17,NE,39,2.4,6.9,25,0.00,FEW,BKN,0.00,887.9,WeatherDisplay:10.37,2013-05-01 21:11:00,
2013-05-01 17:16:00,80.4,43.4,30.17,ENE,67,3.8,6.9,27,0.00,FEW,BKN,0.00,398.4,WeatherDisplay:10.37,2013-05-01 21:16:00,
2013-05-01 17:21:00,80.4,42.4,30.17,NNE,18,2.3,4.6,26,0.00,FEW,BKN,0.00,579.7,WeatherDisplay:10.37,2013-05-01 21:21:00,
2013-05-01 17:26:00,80.1,43.1,30.17,NE,49,4.6,6.9,27,0.00,FEW,BKN,0.00,408.6,WeatherDisplay:10.37,2013-05-01 21:26:00,
2013-05-01 17:31:00,79.5,40.6,30.17,SE,133,3.9,9.2,25,0.00,FEW,BKN,0.00,445.2,WeatherDisplay:10.37,2013-05-01 21:31:00,
2013-05-01 17:36:00,79.9,44.8,30.17,ENE,64,0.9,2.3,29,0.00,FEW,BKN,0.00,198.7,WeatherDisplay:10.37,2013-05-01 21:36:00,
2013-05-01 17:41:00,79.9,40.9,30.17,South,171,3.0,5.8,25,0.00,FEW,BKN,0.00,200.9,WeatherDisplay:10.37,2013-05-01 21:41:00,
2013-05-01 17:46:00,80.1,43.1,30.17,NE,39,1.5,4.6,27,0.00,FEW,BKN,0.00,154.5,WeatherDisplay:10.37,2013-05-01 21:46:00,
2013-05-01 17:51:00,80.4,43.4,30.18,NE,47,3.1,5.8,27,0.00,FEW,BKN,0.00,151.9,WeatherDisplay:10.37,2013-05-01 21:51:00,
2013-05-01 17:56:00,80.2,44.2,30.17,NE,46,0.8,3.5,28,0.00,FEW,BKN,0.00,198.9,WeatherDisplay:10.37,2013-05-01 21:56:00,
2013-05-01 18:01:00,80.4,43.4,30.18,NE,54,1.6,3.8,27,0.00,FEW,BKN,0.00,275.0,WeatherDisplay:10.37,2013-05-01 22:01:00,
2013-05-01 18:06:00,79.9,41.9,30.18,NE,44,2.9,5.8,26,0.00,FEW,BKN,0.00,116.5,WeatherDisplay:10.37,2013-05-01 22:06:00,
2013-05-01 18:11:00,79.5,41.6,30.17,ENE,70,2.1,4.6,26,0.00,FEW,BKN,0.00,128.9,WeatherDisplay:10.37,2013-05-01 22:11:00,
2013-05-01 18:16:00,79.3,41.5,30.17,SE,127,2.0,4.6,26,0.00,CLR,BKN,0.00,149.7,WeatherDisplay:10.37,2013-05-01 22:16:00,
2013-05-01 18:21:00,79.5,40.6,30.18,ENE,66,3.0,6.9,25,0.00,CLR,BKN,0.00,88.8,WeatherDisplay:10.37,2013-05-01 22:21:00,
2013-05-01 18:26:00,79.5,41.6,30.18,ESE,122,1.9,3.5,26,0.00,CLR,BKN,0.00,94.8,WeatherDisplay:10.37,2013-05-01 22:26:00,
2013-05-01 18:31:00,79.5,40.6,30.18,ESE,117,2.4,4.6,25,0.00,CLR,BKN,0.00,76.8,WeatherDisplay:10.37,2013-05-01 22:31:00,
2013-05-01 18:36:00,79.5,41.6,30.17,SSE,149,1.5,4.6,26,0.00,CLR,BKN,0.00,110.5,WeatherDisplay:10.37,2013-05-01 22:36:00,
2013-05-01 18:41:00,79.5,40.6,30.18,East,82,2.3,4.6,25,0.00,CLR,BKN,0.00,68.3,WeatherDisplay:10.37,2013-05-01 22:41:00,
2013-05-01 18:46:00,79.5,41.6,30.18,ENE,60,0.3,2.3,26,0.00,CLR,BKN,0.00,59.2,WeatherDisplay:10.37,2013-05-01 22:46:00,
2013-05-01 18:51:00,79.3,40.4,30.18,East,100,3.0,6.9,25,0.00,CLR,BKN,0.00,97.3,WeatherDisplay:10.37,2013-05-01 22:51:00,
2013-05-01 18:56:00,79.0,41.2,30.17,SE,130,1.9,4.6,26,0.00,CLR,BKN,0.00,64.2,WeatherDisplay:10.37,2013-05-01 22:56:00,
2013-05-01 19:01:00,78.8,41.0,30.18,NNE,27,1.7,3.5,26,0.00,CLR,BKN,0.00,51.0,WeatherDisplay:10.37,2013-05-01 23:01:00,
2013-05-01 19:06:00,78.8,40.0,30.18,NE,39,1.1,4.6,25,0.00,CLR,BKN,0.00,151.1,WeatherDisplay:10.37,2013-05-01 23:06:00,
2013-05-01 19:11:00,78.6,41.8,30.18,North,10,0.1,1.1,27,0.00,CLR,BKN,0.00,124.3,WeatherDisplay:10.37,2013-05-01 23:11:00,
2013-05-01 19:16:00,78.6,40.9,30.18,ENE,64,0.3,1.1,26,0.00,CLR,BKN,0.00,59.3,WeatherDisplay:10.37,2013-05-01 23:16:00,
2013-05-01 19:21:00,78.4,40.7,30.18,NE,38,1.0,4.6,26,0.00,CLR,BKN,0.00,62.7,WeatherDisplay:10.37,2013-05-01 23:21:00,
2013-05-01 19:26:00,78.1,42.3,30.18,ESE,105,0.0,0.0,28,0.00,CLR,BKN,0.00,31.9,WeatherDisplay:10.37,2013-05-01 23:26:00,
2013-05-01 19:31:00,77.7,41.1,30.19,NE,54,0.4,2.3,27,0.00,CLR,BKN,0.00,46.3,WeatherDisplay:10.37,2013-05-01 23:31:00,
2013-05-01 19:36:00,77.5,40.9,30.18,NE,54,0.8,2.3,27,0.00,CLR,BKN,0.00,24.7,WeatherDisplay:10.37,2013-05-01 23:36:00,
2013-05-01 19:41:00,77.4,41.7,30.18,East,79,0.1,1.1,28,0.00,CLR,BKN,0.00,18.0,WeatherDisplay:10.37,2013-05-01 23:41:00,
2013-05-01 19:46:00,77.2,41.5,30.18,NNE,19,0.2,1.1,28,0.00,CLR,BKN,0.00,13.0,WeatherDisplay:10.37,2013-05-01 23:46:00,
2013-05-01 19:51:00,77.0,42.3,30.19,NE,52,0.0,0.0,29,0.00,CLR,BKN,0.00,10.0,WeatherDisplay:10.37,2013-05-01 23:51:00,
2013-05-01 19:56:00,76.6,41.1,30.19,East,88,0.0,0.0,28,0.00,CLR,BKN,0.00,4.8,WeatherDisplay:10.37,2013-05-01 23:56:00,
2013-05-01 20:01:00,76.5,40.9,30.19,NNE,30,0.3,1.1,28,0.00,CLR,BKN,0.00,4.2,WeatherDisplay:10.37,2013-05-02 00:01:00,
2013-05-01 20:06:00,75.6,41.1,30.19,NNE,28,1.2,2.3,29,0.00,CLR,BKN,0.00,1.8,WeatherDisplay:10.37,2013-05-02 00:06:00,
2013-05-01 20:11:00,74.7,40.3,30.19,NNE,29,1.2,2.3,29,0.00,CLR,BKN,0.00,0.9,WeatherDisplay:10.37,2013-05-02 00:11:00,
2013-05-01 20:16:00,74.3,40.8,30.20,NE,54,0.2,2.3,30,0.00,CLR,BKN,0.00,0.2,WeatherDisplay:10.37,2013-05-02 00:16:00,
2013-05-01 20:21:00,73.9,40.5,30.19,NNE,20,0.6,1.4,30,0.00,CLR,BKN,0.00,0.2,WeatherDisplay:10.37,2013-05-02 00:21:00,
2013-05-01 20:26:00,73.0,41.4,30.20,NNE,25,0.6,1.1,32,0.00,CLR,BKN,0.00,0.0,WeatherDisplay:10.37,2013-05-02 00:26:00,
2013-05-01 20:31:00,72.7,44.2,30.20,NNE,25,0.0,0.0,36,0.00,CLR,BKN,0.00,0.0,WeatherDisplay:10.37,2013-05-02 00:31:00,
2013-05-01 20:36:00,72.7,41.9,30.20,NNE,25,0.0,0.0,33,0.00,CLR,BKN,0.00,0.0,WeatherDisplay:10.37,2013-05-02 00:36:00,
2013-05-01 20:41:00,72.3,41.6,30.21,NE,34,0.0,0.0,33,0.00,CLR,BKN,0.00,0.0,WeatherDisplay:10.37,2013-05-02 00:41:00,
2013-05-01 20:46:00,72.3,41.6,30.21,NE,34,0.0,0.0,33,0.00,CLR,BKN,0.00,0.0,WeatherDisplay:10.37,2013-05-02 00:46:00,
2013-05-01 20:51:00,72.0,39.7,30.21,NE,54,0.5,2.3,31,0.00,CLR,BKN,0.00,0.0,WeatherDisplay:10.37,2013-05-02 00:51:00,
2013-05-01 20:56:00,71.6,40.2,30.21,NE,36,0.2,1.1,32,0.00,CLR,BKN,0.00,0.0,WeatherDisplay:10.37,2013-05-02 00:56:00,
2013-05-01 21:01:00,71.4,38.4,30.22,ENE,69,0.1,1.1,30,0.00,CLR,BKN,0.00,0.0,WeatherDisplay:10.37,2013-05-02 01:01:00,
2013-05-01 21:06:00,71.4,40.0,30.22,ENE,69,0.0,0.0,32,0.00,CLR,BKN,0.00,0.0,WeatherDisplay:10.37,2013-05-02 01:06:00,
2013-05-01 21:11:00,71.2,39.9,30.22,ENE,62,0.0,0.0,32,0.00,CLR,BKN,0.00,0.0,WeatherDisplay:10.37,2013-05-02 01:11:00,
2013-05-01 21:16:00,70.9,39.5,30.22,ENE,62,0.0,0.0,32,0.00,SCT,BKN,0.00,0.0,WeatherDisplay:10.37,2013-05-02 01:16:00,
2013-05-01 21:21:00,70.7,41.7,30.22,East,93,0.0,0.0,35,0.00,SCT,BKN,0.00,0.0,WeatherDisplay:10.37,2013-05-02 01:21:00,
2013-05-01 21:26:00,70.5,42.3,30.22,East,93,0.0,0.0,36,0.00,SCT,BKN,0.00,0.0,WeatherDisplay:10.37,2013-05-02 01:26:00,
2013-05-01 21:31:00,70.0,39.5,30.22,SE,135,0.1,1.1,33,0.00,SCT,BKN,0.00,0.0,WeatherDisplay:10.37,2013-05-02 01:31:00,
2013-05-01 21:36:00,69.6,39.2,30.22,SE,134,0.3,1.1,33,0.00,SCT,BKN,0.00,0.0,WeatherDisplay:10.37,2013-05-02 01:36:00,
2013-05-01 21:41:00,69.4,40.6,30.22,SE,134,0.0,1.1,35,0.00,SCT,BKN,0.00,0.0,WeatherDisplay:10.37,2013-05-02 01:41:00,
2013-05-01 21:46:00,69.3,39.7,30.22,SE,131,0.1,1.1,34,0.00,SCT,BKN,0.00,0.0,WeatherDisplay:10.37,2013-05-02 01:46:00,
2013-05-01 21:51:00,69.1,38.8,30.22,SE,130,0.4,2.1,33,0.00,SCT,BKN,0.00,0.0,WeatherDisplay:10.37,2013-05-02 01:51:00,
2013-05-01 21:56:00,68.7,37.7,30.22,SE,127,2.4,4.6,32,0.00,SCT,BKN,0.00,0.0,WeatherDisplay:10.37,2013-05-02 01:56:00,
2013-05-01 22:01:00,68.7,36.0,30.22,SSE,152,2.9,5.8,30,0.00,FEW,BKN,0.00,0.0,WeatherDisplay:10.37,2013-05-02 02:01:00,
2013-05-01 22:06:00,68.9,35.3,30.22,SE,129,3.5,6.9,29,0.00,FEW,BKN,0.00,0.0,WeatherDisplay:10.37,2013-05-02 02:06:00,
2013-05-01 22:11:00,68.9,35.3,30.22,SE,140,2.7,4.6,29,0.00,FEW,BKN,0.00,0.0,WeatherDisplay:10.37,2013-05-02 02:11:00,
2013-05-01 22:16:00,69.1,35.5,30.22,SE,137,2.3,4.6,29,0.00,FEW,BKN,0.00,0.0,WeatherDisplay:10.37,2013-05-02 02:16:00,
2013-05-01 22:21:00,68.9,34.4,30.22,SSE,158,3.5,4.6,28,0.00,FEW,BKN,0.00,0.0,WeatherDisplay:10.37,2013-05-02 02:21:00,
2013-05-01 22:26:00,68.9,33.5,30.22,ESE,119,3.6,5.8,27,0.00,FEW,BKN,0.00,0.0,WeatherDisplay:10.37,2013-05-02 02:26:00,
2013-05-01 22:31:00,69.1,32.7,30.22,SSE,147,6.5,8.1,26,0.00,FEW,BKN,0.00,0.0,WeatherDisplay:10.37,2013-05-02 02:31:00,
2013-05-01 22:36:00,69.4,33.0,30.22,SE,146,5.0,8.2,26,0.00,FEW,BKN,0.00,0.0,WeatherDisplay:10.37,2013-05-02 02:36:00,
2013-05-01 22:41:00,69.3,31.9,30.22,SE,145,5.9,8.1,25,0.00,FEW,BKN,0.00,0.0,WeatherDisplay:10.37,2013-05-02 02:41:00,
2013-05-01 22:46:00,69.1,30.7,30.22,SSE,147,6.8,9.2,24,0.00,FEW,BKN,0.00,0.0,WeatherDisplay:10.37,2013-05-02 02:46:00,
2013-05-01 22:51:00,69.3,30.9,30.22,SE,126,7.6,10.0,24,0.00,FEW,BKN,0.00,0.0,WeatherDisplay:10.37,2013-05-02 02:51:00,
2013-05-01 22:56:00,69.4,30.0,30.22,SSE,154,6.7,10.4,23,0.00,FEW,BKN,0.00,0.0,WeatherDisplay:10.37,2013-05-02 02:56:00,
2013-05-01 23:01:00,69.4,30.0,30.22,SSE,155,8.4,11.5,23,0.00,FEW,BKN,0.00,0.0,WeatherDisplay:10.37,2013-05-02 03:01:00,
2013-05-01 23:06:00,69.4,30.0,30.22,SE,132,7.7,12.7,23,0.00,FEW,BKN,0.00,0.0,WeatherDisplay:10.37,2013-05-02 03:06:00,
2013-05-01 23:11:00,69.1,29.7,30.22,ESE,115,7.3,10.4,23,0.00,FEW,BKN,0.00,0.0,WeatherDisplay:10.37,2013-05-02 03:11:00,
2013-05-01 23:16:00,68.9,30.6,30.22,SSE,148,5.7,8.1,24,0.00,FEW,BKN,0.00,0.0,WeatherDisplay:10.37,2013-05-02 03:16:00,
2013-05-01 23:21:00,68.7,30.4,30.22,SE,132,4.0,6.9,24,0.00,FEW,BKN,0.00,0.0,WeatherDisplay:10.37,2013-05-02 03:21:00,
2013-05-01 23:26:00,68.4,30.1,30.22,SSE,164,4.9,8.1,24,0.00,FEW,BKN,0.00,0.0,WeatherDisplay:10.37,2013-05-02 03:26:00,
2013-05-01 23:31:00,68.2,30.0,30.22,SE,132,4.3,6.9,24,0.00,FEW,BKN,0.00,0.0,WeatherDisplay:10.37,2013-05-02 03:31:00,
2013-05-01 23:36:00,67.8,30.7,30.22,SE,126,5.9,11.5,25,0.00,FEW,BKN,0.00,0.0,WeatherDisplay:10.37,2013-05-02 03:36:00,
2013-05-01 23:41:00,67.8,30.7,30.22,SE,124,4.8,8.1,25,0.00,FEW,BKN,0.00,0.0,WeatherDisplay:10.37,2013-05-02 03:41:00,
2013-05-01 23:46:00,67.5,30.4,30.22,SE,145,6.5,9.2,25,0.00,FEW,BKN,0.00,0.0,WeatherDisplay:10.37,2013-05-02 03:46:00,
2013-05-01 23:51:00,67.5,30.4,30.22,SSE,167,7.1,9.2,25,0.00,FEW,BKN,0.00,0.0,WeatherDisplay:10.37,2013-05-02 03:51:00,
2013-05-01 23:56:00,67.6,30.5,30.21,SSE,163,7.3,10.9,25,0.00,FEW,BKN,0.00,0.0,WeatherDisplay:10.37,2013-05-02 03:56:00,